Tucson International Airport
KTUS : rendu visible

Aérodrome :











RETROUVEZ-NOUS SUR...

 
LOGIN :

S'inscrire | Disclaimer

   EN    FR    IT 

 









Légende :    VFR   VFR Marginal   IFR   IFR Intensif   IFR Très Intensif
Visi : 
Plafond : 
>= 8 km
>= 3000ft
5 à 8 km
1000 à 3000 ft
1500m à 5 km
500 à 1000 ft
800 à 1500m
200 à 500 ft
< 800m
< 200 ft
Symboles :   Orages  Brouillard  Fortes neiges  Fortes précipitations  Vent > 20 kt






- Altitude de l'aérodrome : 2643 ft
- Code IATA : TUS


KTUS - Tucson International

DERNIER METAR :
  • 222253Z 30007KT 10SM CLR 17/03 A3010 RMK AO2 SLP171 T01670033

METARs EXPIRÉS :
  • 222153Z 28003KT 10SM CLR 17/03 A3010 RMK AO2 SLP173 T01670028
  • 222053Z 13005KT 10SM CLR 16/03 A3010 RMK AO2 SLP172 T01610033 58025

TAF KTUS
Valide du 22 à 18h jusqu'au 23 à 18h UTC


221727Z 2218/2318 VRB03KT P6SM SCT060
FM222100 34006KT P6SM SCT070 SCT200
FM230300 23004KT P6SM SCT200
FM230600 14005KT P6SM BKN250



MET'MAP, la Météo Aéronautique d'un coup d'oeil ! - Copyright ORBIFLY Décembre 2007 - Disclaimer

ORBIFLY MET'MAP TEAM :

Programmation & Développement : Alexandra Zaïnal
Conception & Développement : Baudouin d'Aumeries
Co-Programmation & Développement : Marc-Olivier Méhu
Soutien technique & logistique : Manuel Goepfert

Contact : metmap@orbifly.com




SOURCES & CREDITS :

   NOAA       Earth
Advisory